createdAt,value
2023-05-14T00:00:42.234Z,8.52
2023-05-14T00:03:08.924Z,9.13
2023-05-14T00:05:35.682Z,9.05
2023-05-14T00:08:02.444Z,10.02
2023-05-14T00:10:28.977Z,9.15
2023-05-14T00:12:55.662Z,8.75
2023-05-14T00:15:22.341Z,9.27
2023-05-14T00:17:48.915Z,9.73
2023-05-14T00:20:15.594Z,10.55
2023-05-14T00:22:42.147Z,9.77
2023-05-14T00:25:09.104Z,10.13
2023-05-14T00:27:37.765Z,10.32
2023-05-14T00:30:06.975Z,10.52
2023-05-14T00:32:34.014Z,9.95
2023-05-14T00:35:02.923Z,10.57
2023-05-14T00:37:29.533Z,10.85
2023-05-14T00:39:56.069Z,11.10
2023-05-14T00:42:22.674Z,11.98
2023-05-14T00:44:49.194Z,11.75
2023-05-14T00:47:15.926Z,11.30
2023-05-14T00:49:43.166Z,11.35
2023-05-14T00:52:11.340Z,11.38
2023-05-14T00:54:37.950Z,12.07
2023-05-14T00:57:06.594Z,11.90
2023-05-14T00:59:33.392Z,12.30
2023-05-14T01:02:00.062Z,13.90
2023-05-14T01:04:27.145Z,12.52
2023-05-14T01:07:12.717Z,14.05
2023-05-14T01:09:50.176Z,14.27
2023-05-14T01:12:40.359Z,14.02
2023-05-14T01:15:12.484Z,13.90
2023-05-14T01:17:45.346Z,12.70
2023-05-14T01:20:12.698Z,13.32
2023-05-14T01:22:39.237Z,13.30
2023-05-14T01:25:06.623Z,13.02
2023-05-14T01:27:47.286Z,14.32
2023-05-14T01:30:19.779Z,12.15
2023-05-14T01:32:51.155Z,13.32
2023-05-14T01:35:18.838Z,13.23
2023-05-14T01:37:47.509Z,13.98
2023-05-14T01:40:14.429Z,14.20
2023-05-14T01:42:41.607Z,13.65
2023-05-14T01:45:08.740Z,15.57
2023-05-14T01:47:35.457Z,14.82
2023-05-14T01:50:02.110Z,14.00
2023-05-14T01:52:28.679Z,13.57
2023-05-14T01:54:55.361Z,15.18
2023-05-14T01:57:21.922Z,14.45
2023-05-14T02:02:17.299Z,13.73
2023-05-14T02:04:44.337Z,14.63
2023-05-14T02:07:10.912Z,14.52
2023-05-14T02:09:37.515Z,14.52
2023-05-14T02:12:04.333Z,14.70
2023-05-14T02:14:31.023Z,15.27
2023-05-14T02:16:57.666Z,14.38
2023-05-14T02:19:24.502Z,14.95
2023-05-14T02:21:51.044Z,14.63
2023-05-14T02:24:17.631Z,14.88
2023-05-14T02:26:44.179Z,13.38
2023-05-14T02:29:11.496Z,13.35
2023-05-14T02:31:38.092Z,15.35
2023-05-14T02:34:06.687Z,14.02
2023-05-14T02:36:33.603Z,15.20
2023-05-14T02:39:01.102Z,15.00
2023-05-14T02:41:27.953Z,15.45
2023-05-14T02:43:54.869Z,16.15
2023-05-14T02:46:21.740Z,16.20
2023-05-14T02:48:48.300Z,15.80
2023-05-14T02:51:14.804Z,16.50
2023-05-14T02:53:41.525Z,17.10
2023-05-14T02:56:08.172Z,17.35
2023-05-14T02:58:34.788Z,14.80
2023-05-14T03:01:01.414Z,15.65
2023-05-14T03:03:30.168Z,15.10
2023-05-14T03:05:57.414Z,15.60
2023-05-14T03:08:24.099Z,15.38
2023-05-14T03:10:50.697Z,15.82
2023-05-14T03:13:19.878Z,16.13
2023-05-14T03:15:47.194Z,14.20
2023-05-14T03:18:14.200Z,14.00
2023-05-14T03:20:41.467Z,15.27
2023-05-14T03:23:08.085Z,15.20
2023-05-14T03:25:34.706Z,18.92
2023-05-14T03:28:01.242Z,18.23
2023-05-14T03:30:27.920Z,18.23
2023-05-14T03:32:54.512Z,17.23
2023-05-14T03:35:21.083Z,19.50
2023-05-14T03:37:47.582Z,17.42
2023-05-14T03:40:14.138Z,19.17
2023-05-14T03:42:42.963Z,15.30
2023-05-14T03:45:10.958Z,17.40
2023-05-14T03:47:37.928Z,19.83
2023-05-14T03:50:06.416Z,17.17
2023-05-14T03:52:33.289Z,19.40
2023-05-14T03:54:59.878Z,20.67
2023-05-14T03:57:26.405Z,18.83
2023-05-14T03:59:53.000Z,16.60
2023-05-14T04:02:19.530Z,16.95
2023-05-14T04:04:47.007Z,18.58
2023-05-14T04:07:17.377Z,17.92
2023-05-14T04:09:43.929Z,18.92
2023-05-14T04:12:11.681Z,20.13
2023-05-14T04:14:38.663Z,20.35
2023-05-14T04:17:05.356Z,19.85
2023-05-14T04:19:31.913Z,25.02
2023-05-14T04:21:58.476Z,22.35
2023-05-14T04:24:25.126Z,21.58
2023-05-14T04:26:51.662Z,23.00
2023-05-14T04:29:18.221Z,21.23
2023-05-14T04:31:44.921Z,22.60
2023-05-14T04:34:11.591Z,22.30
2023-05-14T04:36:38.156Z,21.30
2023-05-14T04:39:05.951Z,20.05
2023-05-14T04:41:33.305Z,20.35
2023-05-14T04:44:01.786Z,22.27
2023-05-14T04:46:28.827Z,21.30
2023-05-14T04:48:56.467Z,20.95
2023-05-14T04:51:23.795Z,19.98
2023-05-14T04:53:50.412Z,19.63
2023-05-14T04:56:16.993Z,18.83
2023-05-14T04:58:43.522Z,20.92
2023-05-14T05:01:10.149Z,20.15
2023-05-14T05:03:36.788Z,22.10
2023-05-14T05:06:03.535Z,19.77
2023-05-14T05:08:30.792Z,19.02
2023-05-14T05:10:57.334Z,19.10
2023-05-14T05:13:23.884Z,18.85
2023-05-14T05:15:51.079Z,18.55
2023-05-14T05:18:17.710Z,20.23
2023-05-14T05:20:44.227Z,19.38
2023-05-14T05:23:10.963Z,18.02
2023-05-14T05:25:37.563Z,17.73
2023-05-14T05:28:04.197Z,18.75
2023-05-14T05:30:30.775Z,16.75
2023-05-14T05:32:57.639Z,18.17
2023-05-14T05:35:24.583Z,14.70
2023-05-14T05:37:51.141Z,17.63
2023-05-14T05:40:17.904Z,16.67
2023-05-14T05:42:44.463Z,15.98
2023-05-14T05:45:11.264Z,15.85
2023-05-14T05:47:37.870Z,15.05
2023-05-14T05:50:04.969Z,12.80
2023-05-14T05:52:31.605Z,14.15
2023-05-14T05:54:58.268Z,12.00
2023-05-14T05:57:27.058Z,11.90
2023-05-14T05:59:53.809Z,11.45
2023-05-14T06:02:20.660Z,12.98
2023-05-14T06:04:47.303Z,11.55
2023-05-14T06:07:13.830Z,11.43
2023-05-14T06:09:40.406Z,12.27
2023-05-14T06:12:07.341Z,10.50
2023-05-14T06:14:33.859Z,11.25
2023-05-14T06:17:00.910Z,10.13
2023-05-14T06:19:27.513Z,12.00
2023-05-14T06:21:54.017Z,10.55
2023-05-14T06:24:21.076Z,10.57
2023-05-14T06:26:48.805Z,11.98
2023-05-14T06:29:15.415Z,9.57
2023-05-14T06:31:42.070Z,10.60
2023-05-14T06:34:09.128Z,11.10
2023-05-14T06:36:35.636Z,10.05
2023-05-14T06:39:02.157Z,10.30
2023-05-14T06:41:29.568Z,9.88
2023-05-14T06:43:56.081Z,10.23
2023-05-14T06:46:22.647Z,8.90
2023-05-14T06:48:49.315Z,10.05
2023-05-14T06:51:16.881Z,9.30
2023-05-14T06:53:43.462Z,9.00
2023-05-14T06:56:09.988Z,9.18
2023-05-14T06:58:36.482Z,9.65
2023-05-14T07:01:03.141Z,8.95
2023-05-14T07:03:29.715Z,8.35
2023-05-14T07:05:56.220Z,10.45
2023-05-14T07:08:22.782Z,10.20
2023-05-14T07:10:49.317Z,8.90
2023-05-14T07:13:15.849Z,11.23
2023-05-14T07:15:42.399Z,10.07
2023-05-14T07:18:08.950Z,10.38
2023-05-14T07:20:35.686Z,10.35
2023-05-14T07:23:02.296Z,10.07
2023-05-14T07:25:28.794Z,10.13
2023-05-14T07:27:55.752Z,9.25
2023-05-14T07:30:22.498Z,9.45
2023-05-14T07:32:49.292Z,11.23
2023-05-14T07:35:16.121Z,10.82
2023-05-14T07:37:42.991Z,9.57
2023-05-14T07:40:09.932Z,9.90
2023-05-14T07:42:37.443Z,9.57
2023-05-14T07:45:05.291Z,10.50
2023-05-14T07:47:32.404Z,11.23
2023-05-14T07:49:59.232Z,9.60
2023-05-14T07:52:25.827Z,9.65
2023-05-14T07:54:52.685Z,9.10
2023-05-14T07:57:20.014Z,9.68
2023-05-14T07:59:47.769Z,9.77
2023-05-14T08:02:16.060Z,8.95
2023-05-14T08:04:43.010Z,11.23
2023-05-14T08:07:09.931Z,8.95
2023-05-14T08:09:36.802Z,10.18
2023-05-14T08:12:03.941Z,11.20
2023-05-14T08:14:30.500Z,10.55
2023-05-14T08:16:57.194Z,9.85
2023-05-14T08:19:24.495Z,10.00
2023-05-14T08:21:51.421Z,10.77
2023-05-14T08:24:18.897Z,10.48
2023-05-14T08:26:45.532Z,10.57
2023-05-14T08:29:13.442Z,10.90
2023-05-14T08:31:42.219Z,9.80
2023-05-14T08:34:08.835Z,10.02
2023-05-14T08:36:35.465Z,9.50
2023-05-14T08:39:01.995Z,9.52
2023-05-14T08:41:28.891Z,9.43
2023-05-14T08:44:14.092Z,9.27
2023-05-14T08:46:41.550Z,9.85
2023-05-14T08:49:31.823Z,9.30
2023-05-14T08:51:59.608Z,9.48
2023-05-14T08:54:27.091Z,9.38
2023-05-14T08:56:53.966Z,9.85
2023-05-14T08:59:20.667Z,8.82
2023-05-14T09:01:51.565Z,10.45
2023-05-14T09:04:22.165Z,9.45
2023-05-14T09:06:51.093Z,11.35
2023-05-14T09:09:18.295Z,9.88
2023-05-14T09:11:50.056Z,11.93
2023-05-14T09:14:17.150Z,10.38
2023-05-14T09:16:49.092Z,10.52
2023-05-14T09:19:18.859Z,10.25
2023-05-14T09:21:46.148Z,9.57
2023-05-14T09:24:24.102Z,11.30
2023-05-14T09:26:54.677Z,10.18
2023-05-14T09:29:21.369Z,9.60
2023-05-14T09:31:51.417Z,10.20
2023-05-14T09:34:32.137Z,9.18
2023-05-14T09:37:01.677Z,8.05
2023-05-14T09:39:29.405Z,8.13
2023-05-14T09:41:56.957Z,7.20
2023-05-14T09:44:24.313Z,5.50
2023-05-14T09:46:51.656Z,6.10
2023-05-14T09:49:18.666Z,5.18
2023-05-14T09:51:45.305Z,5.43
2023-05-14T09:54:12.061Z,5.13
2023-05-14T09:56:39.622Z,4.57
2023-05-14T09:59:06.324Z,3.97
2023-05-14T10:01:33.551Z,3.72
2023-05-14T10:04:01.091Z,4.10
2023-05-14T10:06:30.446Z,3.83
2023-05-14T10:09:01.895Z,3.72
2023-05-14T10:11:31.781Z,4.07
2023-05-14T10:14:20.704Z,3.35
2023-05-14T10:16:50.745Z,3.35
2023-05-14T10:19:20.753Z,5.30
2023-05-14T10:21:58.086Z,6.03
2023-05-14T10:24:25.212Z,5.38
2023-05-14T10:26:52.127Z,4.68
2023-05-14T10:29:18.691Z,5.40
2023-05-14T10:31:51.208Z,5.15
2023-05-14T10:34:37.903Z,5.18
2023-05-14T10:37:25.493Z,4.07
2023-05-14T10:40:08.201Z,4.50
2023-05-14T10:42:43.413Z,4.72
2023-05-14T10:45:12.548Z,4.45
2023-05-14T10:47:42.536Z,4.57
2023-05-14T10:50:11.885Z,4.85
2023-05-14T10:52:42.309Z,3.72
2023-05-14T10:55:10.334Z,5.55
2023-05-14T10:57:42.132Z,4.85
2023-05-14T11:00:09.205Z,3.63
2023-05-14T11:02:38.155Z,3.60
2023-05-14T11:05:17.093Z,2.92
2023-05-14T11:07:45.421Z,2.97
2023-05-14T11:10:14.588Z,2.83
2023-05-14T11:12:43.832Z,2.80
2023-05-14T11:15:16.169Z,3.33
2023-05-14T11:17:44.387Z,3.60
2023-05-14T11:20:11.969Z,3.55
2023-05-14T11:22:41.326Z,3.58
2023-05-14T11:25:09.763Z,3.58
2023-05-14T11:27:39.434Z,4.10
2023-05-14T11:30:13.262Z,3.40
2023-05-14T11:32:40.806Z,2.72
2023-05-14T11:35:07.747Z,2.88
2023-05-14T11:37:34.340Z,3.08
2023-05-14T11:40:01.696Z,3.92
2023-05-14T11:42:28.361Z,3.22
2023-05-14T11:44:55.106Z,2.40
2023-05-14T11:47:22.539Z,2.30
2023-05-14T11:49:49.586Z,2.28
2023-05-14T11:52:19.350Z,2.35
2023-05-14T11:54:46.316Z,2.53
2023-05-14T11:57:16.167Z,5.60
2023-05-14T11:59:43.159Z,5.70
2023-05-14T12:02:17.668Z,4.90
2023-05-14T12:04:49.925Z,5.63
2023-05-14T12:07:16.741Z,4.65
2023-05-14T12:09:49.761Z,6.00
2023-05-14T12:12:21.980Z,6.05
2023-05-14T12:17:23.409Z,5.75
2023-05-14T12:19:53.397Z,5.32
2023-05-14T12:22:22.445Z,4.65
2023-05-14T12:24:57.132Z,3.20
2023-05-14T12:27:28.012Z,3.88
2023-05-14T12:32:35.812Z,5.28
2023-05-14T12:35:02.484Z,4.97
2023-05-14T12:37:31.122Z,6.15
2023-05-14T12:39:57.913Z,4.97
2023-05-14T12:42:24.533Z,5.97
2023-05-14T12:44:51.100Z,6.90
2023-05-14T12:47:17.964Z,5.72
2023-05-14T12:49:44.698Z,5.47
2023-05-14T12:54:43.334Z,4.55
2023-05-14T12:57:10.249Z,4.50
2023-05-14T12:59:36.898Z,4.88
2023-05-14T13:02:03.637Z,4.90
2023-05-14T13:04:30.246Z,4.65
2023-05-14T13:06:56.826Z,4.07
2023-05-14T13:09:23.421Z,4.28
2023-05-14T13:11:50.029Z,3.88
2023-05-14T13:14:17.856Z,4.07
2023-05-14T13:16:45.597Z,3.72
2023-05-14T13:19:12.248Z,3.42
2023-05-14T13:21:38.842Z,3.67
2023-05-14T13:24:05.639Z,3.33
2023-05-14T13:26:32.170Z,3.22
2023-05-14T13:28:58.682Z,3.70
2023-05-14T13:31:25.290Z,3.60
2023-05-14T13:33:51.952Z,3.15
2023-05-14T13:36:18.658Z,3.10
2023-05-14T13:38:48.452Z,2.85
2023-05-14T13:41:15.265Z,3.15
2023-05-14T13:43:41.825Z,2.60
2023-05-14T13:46:08.470Z,3.30
2023-05-14T13:48:37.073Z,2.97
2023-05-14T13:51:03.664Z,3.05
2023-05-14T13:53:30.614Z,3.10
2023-05-14T13:55:58.379Z,2.90
2023-05-14T13:58:25.947Z,3.22
2023-05-14T14:00:53.106Z,4.00
2023-05-14T14:03:20.262Z,3.28
2023-05-14T14:05:46.872Z,3.50
2023-05-14T14:10:48.489Z,2.80
2023-05-14T14:13:15.081Z,2.65
2023-05-14T14:15:41.711Z,2.90
2023-05-14T14:18:08.357Z,2.85
2023-05-14T14:20:35.130Z,2.88
2023-05-14T14:23:01.978Z,2.60
2023-05-14T14:25:28.579Z,2.40
2023-05-14T14:27:55.173Z,2.33
2023-05-14T14:30:21.688Z,2.80
2023-05-14T14:32:49.192Z,2.63
2023-05-14T14:35:17.451Z,2.80
2023-05-14T14:37:48.908Z,2.50
2023-05-14T14:40:16.817Z,2.63
2023-05-14T14:42:43.853Z,2.75
2023-05-14T14:45:11.409Z,2.65
2023-05-14T14:47:38.057Z,2.70
2023-05-14T14:50:05.895Z,2.72
2023-05-14T14:52:32.632Z,2.47
2023-05-14T14:54:59.152Z,3.50
2023-05-14T14:57:26.700Z,2.60
2023-05-14T14:59:53.262Z,2.78
2023-05-14T15:02:19.926Z,2.75
2023-05-14T15:04:46.630Z,2.20
2023-05-14T15:07:13.690Z,2.60
2023-05-14T15:09:40.273Z,2.60
2023-05-14T15:12:08.863Z,2.55
2023-05-14T15:14:35.561Z,3.10
2023-05-14T15:17:02.281Z,3.15
2023-05-14T15:19:29.599Z,2.92
2023-05-14T15:21:56.141Z,2.80
2023-05-14T15:24:25.037Z,2.90
2023-05-14T15:26:53.337Z,2.40
2023-05-14T15:29:20.198Z,3.15
2023-05-14T15:31:46.990Z,2.88
2023-05-14T15:34:13.670Z,2.83
2023-05-14T15:36:40.500Z,2.75
2023-05-14T15:39:10.174Z,2.70
2023-05-14T15:41:37.034Z,4.82
2023-05-14T15:44:03.895Z,3.78
2023-05-14T15:46:31.040Z,2.60
2023-05-14T15:48:58.185Z,3.20
2023-05-14T15:51:24.819Z,3.20
2023-05-14T15:53:53.387Z,2.90
2023-05-14T15:56:21.073Z,3.30
2023-05-14T15:58:48.175Z,3.30
2023-05-14T16:01:14.873Z,3.90
2023-05-14T16:03:41.636Z,3.70
2023-05-14T16:06:08.331Z,3.40
2023-05-14T16:08:34.874Z,2.78
2023-05-14T16:11:01.435Z,3.00
2023-05-14T16:13:27.960Z,2.97
2023-05-14T16:15:54.566Z,3.10
2023-05-14T16:18:22.031Z,3.80
2023-05-14T16:20:48.664Z,4.63
2023-05-14T16:23:15.170Z,3.20
2023-05-14T16:25:41.760Z,3.42
2023-05-14T16:28:08.349Z,3.20
2023-05-14T16:30:34.990Z,3.50
2023-05-14T16:33:01.613Z,3.08
2023-05-14T16:35:28.224Z,4.00
2023-05-14T16:37:54.846Z,3.65
2023-05-14T16:40:23.372Z,4.10
2023-05-14T16:42:51.088Z,4.82
2023-05-14T16:45:17.944Z,5.10
2023-05-14T16:47:44.532Z,3.35
2023-05-14T16:50:11.251Z,3.72
2023-05-14T16:52:37.801Z,4.32
2023-05-14T16:55:04.842Z,4.90
2023-05-14T16:57:31.572Z,3.90
2023-05-14T16:59:58.145Z,4.18
2023-05-14T17:02:24.694Z,4.80
2023-05-14T17:04:51.371Z,3.80
2023-05-14T17:07:18.057Z,4.00
2023-05-14T17:09:44.606Z,4.38
2023-05-14T17:12:13.028Z,3.67
2023-05-14T17:14:39.663Z,3.88
2023-05-14T17:17:06.344Z,3.72
2023-05-14T17:19:32.923Z,4.25
2023-05-14T17:21:59.598Z,3.78
2023-05-14T17:24:26.219Z,4.03
2023-05-14T17:26:53.098Z,4.85
2023-05-14T17:29:20.282Z,4.20
2023-05-14T17:31:48.230Z,3.78
2023-05-14T17:34:14.928Z,3.85
2023-05-14T17:36:41.602Z,3.80
2023-05-14T17:39:08.141Z,2.95
2023-05-14T17:41:35.047Z,3.53
2023-05-14T17:44:01.583Z,3.35
2023-05-14T17:46:28.357Z,3.25
2023-05-14T17:48:56.249Z,3.38
2023-05-14T17:51:22.768Z,3.30
2023-05-14T17:53:49.278Z,3.10
2023-05-14T17:56:17.581Z,3.17
2023-05-14T17:58:44.945Z,3.33
2023-05-14T18:01:11.897Z,3.40
2023-05-14T18:03:38.585Z,4.68
2023-05-14T18:06:05.291Z,4.93
2023-05-14T18:08:31.856Z,5.50
2023-05-14T18:11:00.639Z,5.65
2023-05-14T18:13:27.231Z,5.70
2023-05-14T18:15:54.334Z,7.25
2023-05-14T18:18:21.667Z,5.78
2023-05-14T18:20:49.385Z,6.85
2023-05-14T18:23:16.162Z,6.57
2023-05-14T18:25:42.957Z,6.95
2023-05-14T18:28:09.682Z,7.00
2023-05-14T18:30:36.263Z,6.80
2023-05-14T18:33:03.420Z,7.72
2023-05-14T18:35:30.158Z,7.63
2023-05-14T18:37:56.787Z,7.88
2023-05-14T18:40:23.394Z,7.80
2023-05-14T18:42:49.983Z,7.82
2023-05-14T18:45:16.571Z,7.38
2023-05-14T18:47:43.312Z,6.80
2023-05-14T18:50:10.263Z,7.05
2023-05-14T18:52:36.942Z,7.40
2023-05-14T18:55:03.739Z,7.10
2023-05-14T18:57:32.138Z,7.03
2023-05-14T19:00:01.165Z,7.82
2023-05-14T19:02:28.565Z,7.93
2023-05-14T19:04:55.645Z,8.15
2023-05-14T19:07:22.555Z,7.60
2023-05-14T19:09:49.263Z,7.30
2023-05-14T19:12:16.081Z,8.07
2023-05-14T19:14:42.768Z,7.38
2023-05-14T19:17:09.492Z,7.97
2023-05-14T19:19:36.449Z,8.77
2023-05-14T19:22:03.021Z,7.07
2023-05-14T19:24:30.210Z,8.32
2023-05-14T19:26:56.805Z,8.13
2023-05-14T19:29:23.371Z,8.02
2023-05-14T19:31:50.005Z,8.32
2023-05-14T19:34:16.803Z,8.27
2023-05-14T19:36:43.457Z,8.88
2023-05-14T19:39:10.787Z,8.93
2023-05-14T19:41:37.405Z,10.00
2023-05-14T19:44:04.028Z,9.07
2023-05-14T19:46:30.683Z,10.50
2023-05-14T19:48:57.265Z,10.80
2023-05-14T19:51:23.852Z,11.55
2023-05-14T19:53:50.455Z,11.55
2023-05-14T19:56:17.119Z,10.82
2023-05-14T19:58:44.273Z,11.10
2023-05-14T20:01:11.968Z,11.20
2023-05-14T20:03:38.867Z,11.88
2023-05-14T20:06:06.980Z,11.60
2023-05-14T20:08:33.722Z,12.90
2023-05-14T20:11:00.343Z,12.02
2023-05-14T20:13:27.008Z,12.20
2023-05-14T20:15:55.018Z,12.65
2023-05-14T20:18:21.846Z,12.48
2023-05-14T20:20:49.062Z,12.43
2023-05-14T20:23:15.918Z,10.95
2023-05-14T20:25:43.098Z,11.75
2023-05-14T20:28:10.169Z,11.45
2023-05-14T20:30:36.870Z,11.05
2023-05-14T20:33:04.035Z,9.77
2023-05-14T20:35:31.109Z,10.93
2023-05-14T20:37:57.669Z,10.82
2023-05-14T20:40:25.283Z,10.13
2023-05-14T20:42:52.191Z,9.82
2023-05-14T20:45:19.009Z,9.32
2023-05-14T20:47:45.625Z,9.20
2023-05-14T20:50:13.610Z,8.90
2023-05-14T20:52:40.457Z,8.95
2023-05-14T20:55:07.598Z,9.57
2023-05-14T20:57:34.236Z,8.75
2023-05-14T21:00:02.047Z,9.18
2023-05-14T21:02:28.743Z,9.30
2023-05-14T21:04:55.466Z,9.32
2023-05-14T21:07:22.130Z,9.07
2023-05-14T21:09:52.216Z,9.13
2023-05-14T21:12:19.383Z,10.07
2023-05-14T21:14:46.065Z,10.32
2023-05-14T21:17:12.695Z,11.02
2023-05-14T21:19:39.547Z,11.10
2023-05-14T21:22:06.737Z,10.27
2023-05-14T21:24:33.239Z,10.30
2023-05-14T21:26:59.819Z,11.82
2023-05-14T21:29:26.335Z,11.15
2023-05-14T21:31:52.916Z,11.02
2023-05-14T21:34:19.520Z,11.05
2023-05-14T21:36:46.480Z,11.30
2023-05-14T21:39:13.710Z,11.80
2023-05-14T21:41:40.411Z,13.55
2023-05-14T21:44:06.934Z,12.93
2023-05-14T21:46:33.786Z,12.60
2023-05-14T21:49:00.514Z,13.98
2023-05-14T21:51:27.157Z,12.90
2023-05-14T21:53:53.722Z,12.68
2023-05-14T21:56:21.076Z,12.57
2023-05-14T21:58:47.708Z,10.73
2023-05-14T22:01:14.519Z,13.88
2023-05-14T22:03:41.457Z,13.13
2023-05-14T22:06:08.098Z,13.50
2023-05-14T22:08:34.706Z,11.98
2023-05-14T22:11:01.328Z,13.20
2023-05-14T22:13:28.431Z,13.55
2023-05-14T22:16:01.447Z,14.20
2023-05-14T22:18:36.592Z,13.70
2023-05-14T22:21:04.831Z,13.43
2023-05-14T22:23:31.425Z,13.65
2023-05-14T22:25:58.199Z,13.52
2023-05-14T22:28:24.852Z,13.60
2023-05-14T22:30:51.439Z,14.13
2023-05-14T22:33:19.310Z,14.38
2023-05-14T22:35:46.072Z,12.88
2023-05-14T22:38:13.770Z,14.70
2023-05-14T22:40:40.445Z,14.32
2023-05-14T22:43:06.961Z,17.20
2023-05-14T22:45:33.727Z,16.95
2023-05-14T22:48:00.427Z,15.80
2023-05-14T22:50:26.993Z,16.50
2023-05-14T22:52:53.563Z,16.50
2023-05-14T22:55:20.185Z,16.85
2023-05-14T22:57:46.893Z,16.83
2023-05-14T23:00:13.903Z,15.50
2023-05-14T23:02:40.759Z,16.35
2023-05-14T23:05:10.555Z,16.73
2023-05-14T23:07:37.357Z,19.33
2023-05-14T23:10:04.207Z,19.13
2023-05-14T23:12:30.899Z,18.52
2023-05-14T23:14:59.131Z,20.25
2023-05-14T23:17:26.192Z,20.73
2023-05-14T23:19:53.015Z,20.33
2023-05-14T23:22:19.786Z,19.55
2023-05-14T23:24:46.334Z,20.55
2023-05-14T23:27:12.942Z,20.13
2023-05-14T23:29:39.529Z,20.35
2023-05-14T23:32:06.596Z,20.27
2023-05-14T23:34:33.198Z,18.80
2023-05-14T23:36:59.805Z,21.00
2023-05-14T23:39:26.774Z,19.52
2023-05-14T23:41:53.413Z,19.58
2023-05-14T23:44:20.141Z,20.25
2023-05-14T23:46:46.731Z,18.45
2023-05-14T23:49:13.344Z,17.23
2023-05-14T23:51:39.951Z,19.88
2023-05-14T23:54:06.494Z,19.30
2023-05-14T23:56:34.326Z,19.40
2023-05-14T23:59:01.053Z,21.52
